Albion, Michigan
Current Conditions -  °F | °C
As of 4:34 AM on Thursday 23 Oct 2014 (Local Time) from KRMY Reporting Station
Moderate Fog Moderate Fog  
Wind Chill: 28°   Ceiling: 200
Heat Index: 28°   Visibility: 0.25mi
Dew Point: 28°   Wind: 0mph
Humidity: 99%   Direction: NA
Pressure: 30.26"   Gusts: NA
Location:  42.25°N, 84.75°W
Report Text: KRMY 230834Z AUTO 00000KT 1/4SM FZFG OVC002 M02/M02 A3026 RMK AO2 T10211022
Loading
Personal Weather Stations






























Interactive Weather Map
Tropical Storm Tracking
New forecast layout! Learn more

10-Day Weather Forecast

Advertisements
Track Severe Weather on mobile